Muskoka Airport

Current Flights

Departures
Number Departure To Airline
Arrivals
Number Arrival From Airline
 N22RE 14:35  Bradford Private owner
Info
Name: Muskoka Airport
Identifier:  YQA/CYQA
Local Time:  23. May 23:09
City
Muskoka
  Canada

Flights per Day
1 flights
Distance: 327km (203mi)
Punctuality
66% (0 flights per day delayed)
Delay Average: 43 minutes
Current Weather
 11 C (Humidity: 81%)
  6kt (11km/h / 6mph) from 280°
  Overcast at 9,500 feet (2,895 meter)
  14km (9 mi.)
 METAR CYQA 240200Z AUTO 28006KT 250V310 9SM OVC095 11/08 A2984 RMK SLP111

Current Delays

Departures
N/A
Arrivals
N/A

Destinations

Top Destinations
Airport Flights
per week
Seats
per week
  Winnipeg (YWG) <1 - 0 0
  Thunder Bay (YQT) <1 - 0 0
  Youngstown (YNG) <1 - 0 0
  Fort Pierce (FPR) <1 - 0 0

Airlines & Planes

Top Airlines
Airline Flights
per Day
Seats
per Day
  Air Georgian <1 -
  Flybe Nordic <1 -
  Air North <1 -
Top Plane Types
Manufacturer Model Flights Seats
Beech 1900D 0.2/day - 0
Beech B300 Super King Air 0.0/day - 0